Time,TemperatureF,DewpointF,PressureIn,WindDirection,WindDirectionDegrees,WindSpeedMPH,WindSpeedGustMPH,Humidity,HourlyPrecipIn,Conditions,Clouds,dailyrainin,SoftwareType,DateUTC
2013-01-15 00:00:00,16.4,13.5,30.46,SSW,207,1.0,3.0,88,0.00,,---,0.00,VWS V14.00,2013-01-15 05:00:00,
2013-01-15 00:03:00,16.5,13.8,30.46,SSW,207,1.0,3.0,89,0.00,,---,0.00,VWS V14.00,2013-01-15 05:03:00,
2013-01-15 00:08:00,16.7,13.8,30.46,SSW,207,1.0,3.0,88,0.00,,---,0.00,VWS V14.00,2013-01-15 05:08:00,
2013-01-15 00:13:00,16.9,14.0,30.46,SSW,207,1.0,3.0,88,0.00,,---,0.00,VWS V14.00,2013-01-15 05:13:00,
2013-01-15 00:19:00,16.9,13.7,30.46,SSW,207,0.0,3.0,87,0.00,,---,0.00,VWS V14.00,2013-01-15 05:19:00,
2013-01-15 00:24:00,16.8,13.6,30.46,SSW,207,0.0,3.0,87,0.00,,---,0.00,VWS V14.00,2013-01-15 05:24:00,
2013-01-15 00:28:00,16.7,13.5,30.46,SSW,207,3.0,4.0,87,0.00,,---,0.00,VWS V14.00,2013-01-15 05:28:00,
2013-01-15 00:30:00,16.7,13.5,30.46,SSW,207,3.0,4.0,87,0.00,,---,0.00,VWS V14.00,2013-01-15 05:30:00,
2013-01-15 00:34:00,16.7,13.5,30.46,SSW,207,2.0,3.0,87,0.00,,---,0.00,VWS V14.00,2013-01-15 05:34:00,
2013-01-15 00:39:00,16.6,13.4,30.46,SSW,207,2.0,3.0,87,0.00,,---,0.00,VWS V14.00,2013-01-15 05:39:00,
2013-01-15 00:44:00,16.5,13.3,30.46,SSW,207,0.0,3.0,87,0.00,,---,0.00,VWS V14.00,2013-01-15 05:44:00,
2013-01-15 00:49:00,16.4,13.2,30.45,SSW,207,0.0,3.0,87,0.00,,---,0.00,VWS V14.00,2013-01-15 05:49:00,
2013-01-15 00:54:00,16.4,13.2,30.45,SSW,207,0.0,3.0,87,0.00,,---,0.00,VWS V14.00,2013-01-15 05:54:00,
2013-01-15 00:59:00,16.3,13.4,30.45,SSW,207,0.0,1.0,88,0.00,,---,0.00,VWS V14.00,2013-01-15 05:59:00,
2013-01-15 01:00:00,16.3,13.1,30.45,SSW,207,0.0,3.0,87,0.00,,---,0.00,VWS V14.00,2013-01-15 06:00:00,
2013-01-15 01:04:00,16.3,13.4,30.45,SSW,207,1.0,2.0,88,0.00,,---,0.00,VWS V14.00,2013-01-15 06:04:00,
2013-01-15 01:09:00,16.3,13.1,30.45,SSW,207,1.0,2.0,87,0.00,,---,0.00,VWS V14.00,2013-01-15 06:09:00,
2013-01-15 01:14:00,16.4,13.5,30.45,SSW,207,2.0,3.0,88,0.00,,---,0.00,VWS V14.00,2013-01-15 06:14:00,
2013-01-15 01:19:00,16.3,13.1,30.45,SSW,207,3.0,4.0,87,0.00,,---,0.00,VWS V14.00,2013-01-15 06:19:00,
2013-01-15 01:24:00,16.5,13.6,30.45,SSW,207,5.0,5.0,88,0.00,,---,0.00,VWS V14.00,2013-01-15 06:24:00,
2013-01-15 01:29:00,16.7,13.5,30.45,SSW,207,4.0,4.0,87,0.00,,---,0.00,VWS V14.00,2013-01-15 06:29:00,
2013-01-15 01:30:00,16.6,13.4,30.45,SSW,207,1.0,5.0,87,0.00,,---,0.00,VWS V14.00,2013-01-15 06:30:00,
2013-01-15 01:34:00,16.7,13.5,30.45,SSW,207,2.0,4.0,87,0.00,,---,0.00,VWS V14.00,2013-01-15 06:34:00,
2013-01-15 01:39:00,16.7,13.5,30.45,SSW,207,1.0,4.0,87,0.00,,---,0.00,VWS V14.00,2013-01-15 06:39:00,
2013-01-15 01:44:00,16.7,13.5,30.45,SSW,207,2.0,4.0,87,0.00,,---,0.00,VWS V14.00,2013-01-15 06:44:00,
2013-01-15 01:49:00,16.8,13.6,30.45,SSW,207,2.0,4.0,87,0.00,,---,0.00,VWS V14.00,2013-01-15 06:49:00,
2013-01-15 01:54:00,16.8,13.6,30.45,SSW,207,1.0,4.0,87,0.00,,---,0.00,VWS V14.00,2013-01-15 06:54:00,
2013-01-15 01:59:00,16.7,13.2,30.45,SSW,207,2.0,2.0,86,0.00,,---,0.00,VWS V14.00,2013-01-15 06:59:00,
2013-01-15 02:00:00,16.7,13.2,30.46,SSW,207,0.0,4.0,86,0.00,,---,0.00,VWS V14.00,2013-01-15 07:00:00,
2013-01-15 02:04:00,16.5,13.1,30.46,SSW,207,0.0,3.0,86,0.00,,---,0.00,VWS V14.00,2013-01-15 07:04:00,
2013-01-15 02:09:00,16.4,12.9,30.46,SSW,207,0.0,3.0,86,0.00,,---,0.00,VWS V14.00,2013-01-15 07:09:00,
2013-01-15 02:14:00,16.2,12.8,30.46,SSW,207,0.0,3.0,86,0.00,,---,0.00,VWS V14.00,2013-01-15 07:14:00,
2013-01-15 02:19:00,16.2,13.0,30.46,SSW,207,0.0,3.0,87,0.00,,---,0.00,VWS V14.00,2013-01-15 07:19:00,
2013-01-15 02:24:00,16.2,13.0,30.46,SSW,207,0.0,3.0,87,0.00,,---,0.00,VWS V14.00,2013-01-15 07:24:00,
2013-01-15 02:29:00,16.1,12.9,30.46,SSW,207,0.0,2.0,87,0.00,,---,0.00,VWS V14.00,2013-01-15 07:29:00,
2013-01-15 02:30:00,16.1,12.9,30.46,SSW,207,2.0,3.0,87,0.00,,---,0.00,VWS V14.00,2013-01-15 07:30:00,
2013-01-15 02:34:00,16.1,12.9,30.47,SSW,207,1.0,3.0,87,0.00,,---,0.00,VWS V14.00,2013-01-15 07:34:00,
2013-01-15 02:39:00,16.2,13.0,30.47,SSW,208,0.0,3.0,87,0.00,,---,0.00,VWS V14.00,2013-01-15 07:39:00,
2013-01-15 02:44:00,16.2,13.0,30.47,SSW,207,1.0,3.0,87,0.00,,---,0.00,VWS V14.00,2013-01-15 07:44:00,
2013-01-15 02:49:00,16.4,13.2,30.47,SW,222,2.0,5.0,87,0.00,,---,0.00,VWS V14.00,2013-01-15 07:49:00,
2013-01-15 02:54:00,16.4,13.2,30.47,SW,222,2.0,5.0,87,0.00,,---,0.00,VWS V14.00,2013-01-15 07:54:00,
2013-01-15 02:59:00,16.5,13.1,30.47,SW,222,3.0,4.0,86,0.00,,---,0.00,VWS V14.00,2013-01-15 07:59:00,
2013-01-15 03:00:00,16.5,13.1,30.47,SW,222,3.0,5.0,86,0.00,,---,0.00,VWS V14.00,2013-01-15 08:00:00,
2013-01-15 03:04:00,16.6,13.1,30.47,SW,225,3.0,4.0,86,0.00,,---,0.00,VWS V14.00,2013-01-15 08:04:00,
2013-01-15 03:09:00,16.6,13.1,30.47,SW,225,1.0,5.0,86,0.00,,---,0.00,VWS V14.00,2013-01-15 08:09:00,
2013-01-15 03:14:00,16.5,13.1,30.47,SW,225,2.0,5.0,86,0.00,,---,0.00,VWS V14.00,2013-01-15 08:14:00,
2013-01-15 03:19:00,16.4,12.9,30.47,SW,217,2.0,5.0,86,0.00,,---,0.00,VWS V14.00,2013-01-15 08:19:00,
2013-01-15 03:24:00,16.4,13.2,30.47,SSW,205,3.0,5.0,87,0.00,,---,0.00,VWS V14.00,2013-01-15 08:24:00,
2013-01-15 03:29:00,16.5,13.3,30.47,SW,215,2.0,6.0,87,0.00,,---,0.00,VWS V14.00,2013-01-15 08:29:00,
2013-01-15 03:30:00,16.5,13.3,30.47,SW,215,5.0,6.0,87,0.00,,---,0.00,VWS V14.00,2013-01-15 08:30:00,
2013-01-15 03:34:00,16.5,13.3,30.47,SW,215,2.0,6.0,87,0.00,,---,0.00,VWS V14.00,2013-01-15 08:34:00,
2013-01-15 03:39:00,16.5,13.3,30.47,SW,215,1.0,6.0,87,0.00,,---,0.00,VWS V14.00,2013-01-15 08:39:00,
2013-01-15 03:44:00,16.4,13.2,30.47,SW,215,3.0,6.0,87,0.00,,---,0.00,VWS V14.00,2013-01-15 08:44:00,
2013-01-15 03:49:00,16.3,13.1,30.47,SW,215,3.0,6.0,87,0.00,,---,0.00,VWS V14.00,2013-01-15 08:49:00,
2013-01-15 03:54:00,16.2,13.0,30.47,SW,215,0.0,6.0,87,0.00,,---,0.00,VWS V14.00,2013-01-15 08:54:00,
2013-01-15 03:59:00,16.1,12.9,30.47,SW,215,2.0,3.0,87,0.00,,---,0.00,VWS V14.00,2013-01-15 08:59:00,
2013-01-15 04:00:00,16.2,13.0,30.47,SW,215,1.0,6.0,87,0.00,,---,0.00,VWS V14.00,2013-01-15 09:00:00,
2013-01-15 04:04:00,16.0,12.8,30.46,SW,215,3.0,3.0,87,0.00,,---,0.00,VWS V14.00,2013-01-15 09:04:00,
2013-01-15 04:09:00,16.0,12.8,30.46,SW,215,1.0,3.0,87,0.00,,---,0.00,VWS V14.00,2013-01-15 09:09:00,
2013-01-15 04:14:00,16.1,12.9,30.46,SW,215,1.0,3.0,87,0.00,,---,0.00,VWS V14.00,2013-01-15 09:14:00,
2013-01-15 04:19:00,16.0,12.8,30.46,SW,215,2.0,4.0,87,0.00,,---,0.00,VWS V14.00,2013-01-15 09:19:00,
2013-01-15 04:24:00,16.1,12.9,30.46,SW,215,2.0,4.0,87,0.00,,---,0.00,VWS V14.00,2013-01-15 09:24:00,
2013-01-15 04:29:00,16.1,12.9,30.46,SW,215,1.0,3.0,87,0.00,,---,0.00,VWS V14.00,2013-01-15 09:29:00,
2013-01-15 04:30:00,16.1,12.9,30.46,SW,215,2.0,4.0,87,0.00,,---,0.00,VWS V14.00,2013-01-15 09:30:00,
2013-01-15 04:35:00,16.1,12.9,30.46,SW,215,2.0,3.0,87,0.00,,---,0.00,VWS V14.00,2013-01-15 09:35:00,
2013-01-15 04:40:00,15.9,12.7,30.45,SW,215,0.0,3.0,87,0.00,,---,0.00,VWS V14.00,2013-01-15 09:40:00,
2013-01-15 04:45:00,15.8,12.6,30.45,SW,215,0.0,3.0,87,0.00,,---,0.00,VWS V14.00,2013-01-15 09:45:00,
2013-01-15 04:50:00,15.7,12.5,30.45,SW,215,1.0,3.0,87,0.00,,---,0.00,VWS V14.00,2013-01-15 09:50:00,
2013-01-15 04:55:00,15.5,12.3,30.46,SW,215,0.0,3.0,87,0.00,,---,0.00,VWS V14.00,2013-01-15 09:55:00,
2013-01-15 05:00:00,15.4,12.5,30.46,SW,215,1.0,2.0,88,0.00,,---,0.00,VWS V14.00,2013-01-15 10:00:00,
2013-01-15 05:05:00,15.4,12.5,30.45,SW,215,2.0,3.0,88,0.00,,---,0.00,VWS V14.00,2013-01-15 10:05:00,
2013-01-15 05:10:00,15.5,12.6,30.46,SW,215,2.0,4.0,88,0.00,,---,0.00,VWS V14.00,2013-01-15 10:10:00,
2013-01-15 05:15:00,15.7,12.8,30.46,SW,215,4.0,5.0,88,0.00,,---,0.00,VWS V14.00,2013-01-15 10:15:00,
2013-01-15 05:20:00,15.9,13.0,30.46,SW,215,2.0,5.0,88,0.00,,---,0.00,VWS V14.00,2013-01-15 10:20:00,
2013-01-15 05:25:00,15.8,12.9,30.47,SW,215,3.0,5.0,88,0.00,,---,0.00,VWS V14.00,2013-01-15 10:25:00,
2013-01-15 05:30:00,15.7,12.8,30.46,SW,215,2.0,4.0,88,0.00,,---,0.00,VWS V14.00,2013-01-15 10:30:00,
2013-01-15 05:35:00,15.6,12.7,30.47,SW,215,3.0,4.0,88,0.00,,---,0.00,VWS V14.00,2013-01-15 10:35:00,
2013-01-15 05:40:00,15.6,12.7,30.46,SSW,209,2.0,4.0,88,0.00,,---,0.00,VWS V14.00,2013-01-15 10:40:00,
2013-01-15 05:45:00,15.5,12.6,30.47,SSW,209,1.0,4.0,88,0.00,,---,0.00,VWS V14.00,2013-01-15 10:45:00,
2013-01-15 05:50:00,15.4,12.5,30.47,SSW,209,2.0,4.0,88,0.00,,---,0.00,VWS V14.00,2013-01-15 10:50:00,
2013-01-15 05:55:00,15.3,12.4,30.47,SSW,209,2.0,4.0,88,0.00,,---,0.00,VWS V14.00,2013-01-15 10:55:00,
2013-01-15 06:00:00,15.3,12.4,30.47,SSW,205,4.0,5.0,88,0.00,,---,0.00,VWS V14.00,2013-01-15 11:00:00,
2013-01-15 06:05:00,15.4,12.5,30.47,SSW,205,4.0,5.0,88,0.00,,---,0.00,VWS V14.00,2013-01-15 11:05:00,
2013-01-15 06:10:00,15.3,12.4,30.47,SSW,205,3.0,5.0,88,0.00,,---,0.00,VWS V14.00,2013-01-15 11:10:00,
2013-01-15 06:15:00,15.3,12.4,30.47,SSW,205,0.0,5.0,88,0.00,,---,0.00,VWS V14.00,2013-01-15 11:15:00,
2013-01-15 06:20:00,15.2,12.3,30.47,SSW,205,1.0,5.0,88,0.00,,---,0.00,VWS V14.00,2013-01-15 11:20:00,
2013-01-15 06:25:00,15.0,12.1,30.47,SSW,205,0.0,5.0,88,0.00,,---,0.00,VWS V14.00,2013-01-15 11:25:00,
2013-01-15 06:30:00,14.9,12.0,30.48,SSW,204,0.0,3.0,88,0.00,,---,0.00,VWS V14.00,2013-01-15 11:30:00,
2013-01-15 06:35:00,14.8,12.1,30.48,SSW,205,2.0,3.0,89,0.00,,---,0.00,VWS V14.00,2013-01-15 11:35:00,
2013-01-15 06:40:00,14.8,12.1,30.48,SSW,192,3.0,5.0,89,0.00,,---,0.00,VWS V14.00,2013-01-15 11:40:00,
2013-01-15 06:45:00,14.9,12.2,30.48,SSW,192,1.0,5.0,89,0.00,,---,0.00,VWS V14.00,2013-01-15 11:45:00,
2013-01-15 06:50:00,14.8,12.1,30.48,SSW,192,2.0,5.0,89,0.00,,---,0.00,VWS V14.00,2013-01-15 11:50:00,
2013-01-15 06:55:00,14.7,12.1,30.48,SSW,192,1.0,5.0,89,0.00,,---,0.00,VWS V14.00,2013-01-15 11:55:00,
2013-01-15 07:00:00,14.7,12.1,30.48,SSW,192,0.0,3.0,89,0.00,,---,0.00,VWS V14.00,2013-01-15 12:00:00,
2013-01-15 07:05:00,14.6,11.9,30.49,SSW,192,0.0,5.0,89,0.00,,---,0.00,VWS V14.00,2013-01-15 12:05:00,
2013-01-15 07:10:00,14.6,11.9,30.48,SSW,192,0.0,5.0,89,0.00,,---,0.00,VWS V14.00,2013-01-15 12:10:00,
2013-01-15 07:15:00,14.5,11.9,30.49,SSW,192,0.0,5.0,89,0.00,,---,0.00,VWS V14.00,2013-01-15 12:15:00,
2013-01-15 07:20:00,14.4,11.8,30.49,SSW,192,0.0,5.0,89,0.00,,---,0.00,VWS V14.00,2013-01-15 12:20:00,
2013-01-15 07:25:00,14.3,11.7,30.48,SSW,192,0.0,5.0,89,0.00,,---,0.00,VWS V14.00,2013-01-15 12:25:00,
2013-01-15 07:30:00,14.3,11.7,30.49,SSW,192,3.0,3.0,89,0.00,,---,0.00,VWS V14.00,2013-01-15 12:30:00,
2013-01-15 07:35:00,14.3,11.7,30.48,SSW,192,0.0,3.0,89,0.00,,---,0.00,VWS V14.00,2013-01-15 12:35:00,
2013-01-15 07:40:00,14.3,11.7,30.48,SSW,192,1.0,3.0,89,0.00,,---,0.00,VWS V14.00,2013-01-15 12:40:00,
2013-01-15 07:45:00,14.2,11.6,30.48,SSW,192,0.0,3.0,89,0.00,,---,0.00,VWS V14.00,2013-01-15 12:45:00,
2013-01-15 07:50:00,14.1,11.5,30.48,SSW,192,0.0,3.0,89,0.00,,---,0.00,VWS V14.00,2013-01-15 12:50:00,
2013-01-15 07:55:00,14.1,11.5,30.48,SSW,192,0.0,3.0,89,0.00,,---,0.00,VWS V14.00,2013-01-15 12:55:00,
2013-01-15 08:00:00,14.3,11.9,30.48,SSW,192,0.0,2.0,90,0.00,,---,0.00,VWS V14.00,2013-01-15 13:00:00,
2013-01-15 08:05:00,14.4,11.8,30.48,SSW,192,1.0,2.0,89,0.00,,---,0.00,VWS V14.00,2013-01-15 13:05:00,
2013-01-15 08:10:00,14.4,12.0,30.48,SSW,192,0.0,2.0,90,0.00,,---,0.00,VWS V14.00,2013-01-15 13:10:00,
2013-01-15 08:15:00,14.4,11.8,30.48,SSW,192,1.0,2.0,89,0.00,,---,0.00,VWS V14.00,2013-01-15 13:15:00,
2013-01-15 08:20:00,14.4,11.8,30.48,SSW,192,0.0,2.0,89,0.00,,---,0.00,VWS V14.00,2013-01-15 13:20:00,
2013-01-15 08:25:00,14.5,11.9,30.48,SSW,192,0.0,2.0,89,0.00,,---,0.00,VWS V14.00,2013-01-15 13:25:00,
2013-01-15 08:30:00,14.8,12.1,30.48,SSW,192,0.0,0.0,89,0.00,,---,0.00,VWS V14.00,2013-01-15 13:30:00,
2013-01-15 08:35:00,15.3,12.9,30.48,SSW,192,0.0,0.0,90,0.00,,---,0.00,VWS V14.00,2013-01-15 13:35:00,
2013-01-15 08:40:00,15.9,13.2,30.48,SSW,192,0.0,0.0,89,0.00,,---,0.00,VWS V14.00,2013-01-15 13:40:00,
2013-01-15 08:45:00,16.5,13.8,30.48,SSW,192,0.0,0.0,89,0.00,,---,0.00,VWS V14.00,2013-01-15 13:45:00,
2013-01-15 08:50:00,16.7,13.5,30.48,SSW,192,0.0,1.0,87,0.00,,---,0.00,VWS V14.00,2013-01-15 13:50:00,
2013-01-15 08:55:00,17.0,13.8,30.48,SSW,192,0.0,1.0,87,0.00,,---,0.00,VWS V14.00,2013-01-15 13:55:00,
2013-01-15 09:00:00,17.5,14.0,30.48,SSW,192,0.0,0.0,86,0.00,,---,0.00,VWS V14.00,2013-01-15 14:00:00,
2013-01-15 09:05:00,17.5,13.8,30.48,SSW,192,0.0,1.0,85,0.00,,---,0.00,VWS V14.00,2013-01-15 14:05:00,
2013-01-15 09:10:00,17.3,13.6,30.49,SSW,192,2.0,2.0,85,0.00,,---,0.00,VWS V14.00,2013-01-15 14:10:00,
2013-01-15 09:15:00,17.3,13.8,30.49,SSW,192,2.0,2.0,86,0.00,,---,0.00,VWS V14.00,2013-01-15 14:15:00,
2013-01-15 09:20:00,17.2,13.7,30.49,SSW,192,0.0,3.0,86,0.00,,---,0.00,VWS V14.00,2013-01-15 14:20:00,
2013-01-15 09:25:00,17.4,13.9,30.49,SSW,192,0.0,3.0,86,0.00,,---,0.00,VWS V14.00,2013-01-15 14:25:00,
2013-01-15 09:30:00,17.7,14.2,30.49,SSW,192,1.0,1.0,86,0.00,,---,0.00,VWS V14.00,2013-01-15 14:30:00,
2013-01-15 09:35:00,17.9,14.2,30.49,SSW,192,2.0,3.0,85,0.00,,---,0.00,VWS V14.00,2013-01-15 14:35:00,
2013-01-15 09:40:00,18.2,14.5,30.49,South,174,2.0,5.0,85,0.00,,---,0.00,VWS V14.00,2013-01-15 14:40:00,
2013-01-15 09:45:00,18.3,14.6,30.49,South,174,2.0,5.0,85,0.00,,---,0.00,VWS V14.00,2013-01-15 14:45:00,
2013-01-15 09:50:00,18.5,14.8,30.49,South,174,1.0,5.0,85,0.00,,---,0.00,VWS V14.00,2013-01-15 14:50:00,
2013-01-15 09:55:00,18.8,15.1,30.49,South,173,1.0,5.0,85,0.00,,---,0.00,VWS V14.00,2013-01-15 14:55:00,
2013-01-15 10:00:00,19.1,15.3,30.49,South,173,0.0,5.0,85,0.00,,---,0.00,VWS V14.00,2013-01-15 15:00:00,
2013-01-15 10:05:00,19.5,15.5,30.49,South,173,0.0,5.0,84,0.00,,---,0.00,VWS V14.00,2013-01-15 15:05:00,
2013-01-15 10:10:00,19.9,15.9,30.49,South,173,1.0,5.0,84,0.00,,---,0.00,VWS V14.00,2013-01-15 15:10:00,
2013-01-15 10:15:00,20.1,15.8,30.49,South,173,2.0,5.0,83,0.00,,---,0.00,VWS V14.00,2013-01-15 15:15:00,
2013-01-15 10:21:00,20.2,16.1,30.49,South,177,0.0,5.0,84,0.00,,---,0.00,VWS V14.00,2013-01-15 15:21:00,
2013-01-15 10:26:00,20.5,16.2,30.49,South,177,1.0,5.0,83,0.00,,---,0.00,VWS V14.00,2013-01-15 15:26:00,
2013-01-15 10:30:00,20.7,16.6,30.49,South,177,0.0,5.0,84,0.00,,---,0.00,VWS V14.00,2013-01-15 15:30:00,
2013-01-15 10:31:00,21.0,16.9,30.49,South,177,2.0,2.0,84,0.00,,---,0.00,VWS V14.00,2013-01-15 15:31:00,
2013-01-15 10:36:00,21.5,17.1,30.49,South,178,2.0,4.0,83,0.00,,---,0.00,VWS V14.00,2013-01-15 15:36:00,
2013-01-15 10:41:00,21.9,17.3,30.50,South,178,1.0,4.0,82,0.00,,---,0.00,VWS V14.00,2013-01-15 15:41:00,
2013-01-15 10:46:00,22.3,17.6,30.50,South,178,0.0,4.0,82,0.00,,---,0.00,VWS V14.00,2013-01-15 15:46:00,
2013-01-15 10:51:00,22.4,17.5,30.50,South,177,1.0,5.0,81,0.00,,---,0.00,VWS V14.00,2013-01-15 15:51:00,
2013-01-15 10:56:00,22.7,17.8,30.50,South,177,2.0,5.0,81,0.00,,---,0.00,VWS V14.00,2013-01-15 15:56:00,
2013-01-15 11:00:00,22.7,17.5,30.50,SSW,193,2.0,6.0,80,0.00,,---,0.00,VWS V14.00,2013-01-15 16:00:00,
2013-01-15 11:01:00,22.6,17.7,30.49,SSW,194,0.0,2.0,81,0.00,,---,0.00,VWS V14.00,2013-01-15 16:01:00,
2013-01-15 11:06:00,22.6,17.4,30.49,SSW,194,3.0,4.0,80,0.00,,---,0.00,VWS V14.00,2013-01-15 16:06:00,
2013-01-15 11:11:00,22.6,17.4,30.48,SSW,193,1.0,4.0,80,0.00,,---,0.00,VWS V14.00,2013-01-15 16:11:00,
2013-01-15 11:16:00,23.1,18.1,30.49,SW,217,2.0,4.0,81,0.00,,---,0.00,VWS V14.00,2013-01-15 16:16:00,
2013-01-15 11:21:00,23.0,17.8,30.48,WSW,241,2.0,5.0,80,0.00,,---,0.00,VWS V14.00,2013-01-15 16:21:00,
2013-01-15 11:26:00,22.9,17.7,30.48,SW,236,2.0,5.0,80,0.00,,---,0.00,VWS V14.00,2013-01-15 16:26:00,
2013-01-15 11:30:00,22.9,17.7,30.49,WSW,238,3.0,5.0,80,0.00,,---,0.00,VWS V14.00,2013-01-15 16:30:00,
2013-01-15 11:31:00,22.9,17.4,30.49,WSW,242,2.0,4.0,79,0.00,,---,0.00,VWS V14.00,2013-01-15 16:31:00,
2013-01-15 11:36:00,23.0,17.2,30.49,WSW,250,4.0,5.0,78,0.00,,---,0.00,VWS V14.00,2013-01-15 16:36:00,
2013-01-15 11:41:00,23.3,17.5,30.48,SW,222,3.0,5.0,78,0.00,,---,0.00,VWS V14.00,2013-01-15 16:41:00,
2013-01-15 11:46:00,23.6,17.5,30.48,WSW,248,3.0,6.0,77,0.00,,---,0.00,VWS V14.00,2013-01-15 16:46:00,
2013-01-15 11:51:00,23.6,17.2,30.48,SW,225,3.0,6.0,76,0.00,,---,0.00,VWS V14.00,2013-01-15 16:51:00,
2013-01-15 11:56:00,23.9,17.5,30.48,SSW,213,2.0,6.0,76,0.00,,---,0.00,VWS V14.00,2013-01-15 16:56:00,
2013-01-15 12:00:00,24.0,17.5,30.48,SSW,213,4.0,6.0,76,0.00,,---,0.00,VWS V14.00,2013-01-15 17:00:00,
2013-01-15 12:01:00,24.0,16.9,30.48,SW,215,1.0,8.0,74,0.00,,---,0.00,VWS V14.00,2013-01-15 17:01:00,
2013-01-15 12:06:00,24.3,17.2,30.48,SW,234,6.0,8.0,74,0.00,,---,0.00,VWS V14.00,2013-01-15 17:06:00,
2013-01-15 12:11:00,24.2,17.1,30.47,SW,219,4.0,8.0,74,0.00,,---,0.00,VWS V14.00,2013-01-15 17:11:00,
2013-01-15 12:16:00,24.2,17.1,30.47,SSW,204,3.0,8.0,74,0.00,,---,0.00,VWS V14.00,2013-01-15 17:16:00,
2013-01-15 12:21:00,24.3,17.2,30.47,WSW,242,3.0,8.0,74,0.00,,---,0.00,VWS V14.00,2013-01-15 17:21:00,
2013-01-15 12:26:00,24.3,17.2,30.47,SSW,205,3.0,8.0,74,0.00,,---,0.00,VWS V14.00,2013-01-15 17:26:00,
2013-01-15 12:30:00,24.3,17.2,30.47,SSW,206,0.0,8.0,74,0.00,,---,0.00,VWS V14.00,2013-01-15 17:30:00,
2013-01-15 12:31:00,24.6,17.8,30.47,SSW,203,4.0,5.0,75,0.00,,---,0.00,VWS V14.00,2013-01-15 17:31:00,
2013-01-15 12:36:00,24.8,17.4,30.46,South,191,3.0,8.0,73,0.00,,---,0.00,VWS V14.00,2013-01-15 17:36:00,
2013-01-15 12:41:00,24.6,16.9,30.46,SW,217,4.0,8.0,72,0.00,,---,0.00,VWS V14.00,2013-01-15 17:41:00,
2013-01-15 12:46:00,24.4,17.0,30.45,SSW,207,6.0,8.0,73,0.00,,---,0.00,VWS V14.00,2013-01-15 17:46:00,
2013-01-15 12:51:00,24.7,17.3,30.45,SW,224,2.0,8.0,73,0.00,,---,0.00,VWS V14.00,2013-01-15 17:51:00,
2013-01-15 12:56:00,25.1,17.7,30.44,SW,221,3.0,8.0,73,0.00,,---,0.00,VWS V14.00,2013-01-15 17:56:00,
2013-01-15 13:00:00,25.0,17.6,30.44,WSW,251,5.0,8.0,73,0.00,,---,0.00,VWS V14.00,2013-01-15 18:00:00,
2013-01-15 13:01:00,24.9,17.5,30.43,South,188,4.0,6.0,73,0.00,,---,0.00,VWS V14.00,2013-01-15 18:01:00,
2013-01-15 13:06:00,25.2,17.8,30.43,SSE,164,4.0,7.0,73,0.00,,---,0.00,VWS V14.00,2013-01-15 18:06:00,
2013-01-15 13:11:00,25.7,18.3,30.43,SSW,208,3.0,8.0,73,0.00,,---,0.00,VWS V14.00,2013-01-15 18:11:00,
2013-01-15 13:16:00,25.8,18.0,30.42,WSW,240,3.0,8.0,72,0.00,,---,0.00,VWS V14.00,2013-01-15 18:16:00,
2013-01-15 13:21:00,25.7,17.9,30.41,SW,216,3.0,8.0,72,0.00,,---,0.00,VWS V14.00,2013-01-15 18:21:00,
2013-01-15 13:26:00,25.8,17.4,30.40,WNW,287,2.0,8.0,70,0.00,,---,0.00,VWS V14.00,2013-01-15 18:26:00,
2013-01-15 13:30:00,25.7,17.3,30.40,WSW,256,5.0,8.0,70,0.00,,---,0.00,VWS V14.00,2013-01-15 18:30:00,
2013-01-15 13:31:00,25.3,16.9,30.41,West,274,2.0,7.0,70,0.00,,---,0.00,VWS V14.00,2013-01-15 18:31:00,
2013-01-15 13:36:00,25.4,17.3,30.41,WSW,252,3.0,7.0,71,0.00,,---,0.00,VWS V14.00,2013-01-15 18:36:00,
2013-01-15 13:41:00,25.7,17.9,30.40,SW,225,3.0,7.0,72,0.00,,---,0.00,VWS V14.00,2013-01-15 18:41:00,
2013-01-15 13:46:00,25.9,17.8,30.41,SW,219,5.0,7.0,71,0.00,,---,0.00,VWS V14.00,2013-01-15 18:46:00,
2013-01-15 13:51:00,26.0,17.9,30.40,SW,219,4.0,7.0,71,0.00,,---,0.00,VWS V14.00,2013-01-15 18:51:00,
2013-01-15 13:56:00,26.1,18.0,30.40,WSW,246,5.0,7.0,71,0.00,,---,0.00,VWS V14.00,2013-01-15 18:56:00,
2013-01-15 14:00:00,26.0,17.9,30.40,WSW,252,5.0,7.0,71,0.00,,---,0.00,VWS V14.00,2013-01-15 19:00:00,
2013-01-15 14:01:00,25.9,17.5,30.41,SW,223,4.0,6.0,70,0.00,,---,0.00,VWS V14.00,2013-01-15 19:01:00,
2013-01-15 14:06:00,26.0,17.6,30.41,WSW,248,4.0,8.0,70,0.00,,---,0.00,VWS V14.00,2013-01-15 19:06:00,
2013-01-15 14:11:00,26.0,17.9,30.41,SW,234,4.0,8.0,71,0.00,,---,0.00,VWS V14.00,2013-01-15 19:11:00,
2013-01-15 14:16:00,26.2,18.1,30.41,WSW,248,7.0,8.0,71,0.00,,---,0.00,VWS V14.00,2013-01-15 19:16:00,
2013-01-15 14:21:00,26.3,18.2,30.41,SSW,203,6.0,8.0,71,0.00,,---,0.00,VWS V14.00,2013-01-15 19:21:00,
2013-01-15 14:26:00,26.6,18.5,30.41,SSW,213,4.0,8.0,71,0.00,,---,0.00,VWS V14.00,2013-01-15 19:26:00,
2013-01-15 14:30:00,26.7,18.6,30.41,SSW,209,5.0,8.0,71,0.00,,---,0.00,VWS V14.00,2013-01-15 19:30:00,
2013-01-15 14:31:00,26.7,18.6,30.41,SSW,202,4.0,7.0,71,0.00,,---,0.00,VWS V14.00,2013-01-15 19:31:00,
2013-01-15 14:36:00,26.6,18.1,30.41,SSW,206,5.0,9.0,70,0.00,,---,0.00,VWS V14.00,2013-01-15 19:36:00,
2013-01-15 14:41:00,26.7,18.2,30.41,SSW,209,4.0,9.0,70,0.00,,---,0.00,VWS V14.00,2013-01-15 19:41:00,
2013-01-15 14:46:00,27.1,18.6,30.41,WSW,237,5.0,9.0,70,0.00,,---,0.00,VWS V14.00,2013-01-15 19:46:00,
2013-01-15 14:51:00,26.7,17.9,30.41,SW,219,4.0,9.0,69,0.00,,---,0.00,VWS V14.00,2013-01-15 19:51:00,
2013-01-15 14:56:00,26.7,18.2,30.40,SSW,213,4.0,9.0,70,0.00,,---,0.00,VWS V14.00,2013-01-15 19:56:00,
2013-01-15 15:00:00,26.8,18.3,30.40,SSW,213,4.0,9.0,70,0.00,,---,0.00,VWS V14.00,2013-01-15 20:00:00,
2013-01-15 15:02:00,27.0,18.5,30.39,SW,217,6.0,8.0,70,0.00,,---,0.00,VWS V14.00,2013-01-15 20:02:00,
2013-01-15 15:07:00,26.8,18.3,30.39,SW,217,4.0,8.0,70,0.00,,---,0.00,VWS V14.00,2013-01-15 20:07:00,
2013-01-15 15:12:00,27.1,19.0,30.39,SW,229,3.0,8.0,71,0.00,,---,0.00,VWS V14.00,2013-01-15 20:12:00,
2013-01-15 15:17:00,27.4,18.6,30.39,SW,219,5.0,8.0,69,0.00,,---,0.00,VWS V14.00,2013-01-15 20:17:00,
2013-01-15 15:22:00,27.5,19.0,30.39,SW,220,2.0,8.0,70,0.00,,---,0.00,VWS V14.00,2013-01-15 20:22:00,
2013-01-15 15:27:00,27.7,19.2,30.39,SW,220,7.0,8.0,70,0.00,,---,0.00,VWS V14.00,2013-01-15 20:27:00,
2013-01-15 15:30:00,27.6,18.8,30.39,SSW,208,5.0,8.0,69,0.00,,---,0.00,VWS V14.00,2013-01-15 20:30:00,
2013-01-15 15:32:00,27.7,19.2,30.39,SW,229,3.0,5.0,70,0.00,,---,0.00,VWS V14.00,2013-01-15 20:32:00,
2013-01-15 15:37:00,27.8,19.3,30.39,SSW,202,3.0,7.0,70,0.00,,---,0.00,VWS V14.00,2013-01-15 20:37:00,
2013-01-15 15:42:00,27.7,19.2,30.39,SSW,213,3.0,7.0,70,0.00,,---,0.00,VWS V14.00,2013-01-15 20:42:00,
2013-01-15 15:47:00,27.6,19.1,30.38,SW,221,2.0,7.0,70,0.00,,---,0.00,VWS V14.00,2013-01-15 20:47:00,
2013-01-15 15:52:00,27.8,19.3,30.38,SSW,207,3.0,7.0,70,0.00,,---,0.00,VWS V14.00,2013-01-15 20:52:00,
2013-01-15 15:57:00,27.6,19.1,30.38,SW,223,3.0,7.0,70,0.00,,---,0.00,VWS V14.00,2013-01-15 20:57:00,
2013-01-15 16:00:00,27.6,19.1,30.38,SW,217,6.0,7.0,70,0.00,,---,0.00,VWS V14.00,2013-01-15 21:00:00,
2013-01-15 16:02:00,27.5,19.4,30.38,SW,221,3.0,6.0,71,0.00,,---,0.00,VWS V14.00,2013-01-15 21:02:00,
2013-01-15 16:07:00,27.4,19.2,30.37,SSW,199,1.0,6.0,71,0.00,,---,0.00,VWS V14.00,2013-01-15 21:07:00,
2013-01-15 16:12:00,27.4,19.6,30.38,SSW,200,0.0,6.0,72,0.00,,---,0.00,VWS V14.00,2013-01-15 21:12:00,
2013-01-15 16:17:00,27.4,19.6,30.38,SSW,194,3.0,6.0,72,0.00,,---,0.00,VWS V14.00,2013-01-15 21:17:00,
2013-01-15 16:22:00,27.5,19.7,30.37,SSW,193,1.0,6.0,72,0.00,,---,0.00,VWS V14.00,2013-01-15 21:22:00,
2013-01-15 16:27:00,27.4,19.6,30.38,SSE,167,2.0,6.0,72,0.00,,---,0.00,VWS V14.00,2013-01-15 21:27:00,
2013-01-15 16:30:00,27.4,19.6,30.38,SSW,199,5.0,6.0,72,0.00,,---,0.00,VWS V14.00,2013-01-15 21:30:00,
2013-01-15 16:32:00,27.2,19.4,30.37,SSW,196,2.0,6.0,72,0.00,,---,0.00,VWS V14.00,2013-01-15 21:32:00,
2013-01-15 16:37:00,27.0,19.5,30.37,SSW,204,5.0,6.0,73,0.00,,---,0.00,VWS V14.00,2013-01-15 21:37:00,
2013-01-15 16:42:00,26.9,19.4,30.37,SSW,197,2.0,6.0,73,0.00,,---,0.00,VWS V14.00,2013-01-15 21:42:00,
2013-01-15 16:47:00,26.8,19.3,30.37,SSW,211,2.0,6.0,73,0.00,,---,0.00,VWS V14.00,2013-01-15 21:47:00,
2013-01-15 16:52:00,26.4,19.6,30.37,SW,234,1.0,6.0,75,0.00,,---,0.00,VWS V14.00,2013-01-15 21:52:00,
2013-01-15 16:57:00,26.1,19.0,30.37,SW,235,2.0,6.0,74,0.00,,---,0.00,VWS V14.00,2013-01-15 21:57:00,
2013-01-15 17:00:00,26.0,18.9,30.37,SW,235,0.0,6.0,74,0.00,,---,0.00,VWS V14.00,2013-01-15 22:00:00,
2013-01-15 17:02:00,25.9,18.8,30.37,SW,223,1.0,5.0,74,0.00,,---,0.00,VWS V14.00,2013-01-15 22:02:00,
2013-01-15 17:07:00,25.9,18.8,30.36,SW,223,0.0,5.0,74,0.00,,---,0.00,VWS V14.00,2013-01-15 22:07:00,
2013-01-15 17:12:00,25.8,18.7,30.37,SW,223,1.0,5.0,74,0.00,,---,0.00,VWS V14.00,2013-01-15 22:12:00,
2013-01-15 17:17:00,25.7,18.6,30.37,SW,223,0.0,5.0,74,0.00,,---,0.00,VWS V14.00,2013-01-15 22:17:00,
2013-01-15 17:22:00,25.6,18.8,30.36,SW,223,0.0,5.0,75,0.00,,---,0.00,VWS V14.00,2013-01-15 22:22:00,
2013-01-15 17:27:00,25.5,18.7,30.36,SW,223,1.0,5.0,75,0.00,,---,0.00,VWS V14.00,2013-01-15 22:27:00,
2013-01-15 17:30:00,25.5,18.7,30.36,SW,223,2.0,5.0,75,0.00,,---,0.00,VWS V14.00,2013-01-15 22:30:00,
2013-01-15 17:32:00,25.4,18.6,30.36,SW,223,1.0,3.0,75,0.00,,---,0.00,VWS V14.00,2013-01-15 22:32:00,
2013-01-15 17:37:00,25.3,18.8,30.36,SW,223,1.0,3.0,76,0.00,,---,0.00,VWS V14.00,2013-01-15 22:37:00,
2013-01-15 17:42:00,25.1,18.6,30.36,SW,223,0.0,3.0,76,0.00,,---,0.00,VWS V14.00,2013-01-15 22:42:00,
2013-01-15 17:47:00,25.0,18.8,30.36,SW,223,2.0,3.0,77,0.00,,---,0.00,VWS V14.00,2013-01-15 22:47:00,
2013-01-15 17:52:00,24.9,18.7,30.36,SW,223,1.0,3.0,77,0.00,,---,0.00,VWS V14.00,2013-01-15 22:52:00,
2013-01-15 17:57:00,24.8,18.6,30.36,SW,223,0.0,3.0,77,0.00,,---,0.00,VWS V14.00,2013-01-15 22:57:00,
2013-01-15 18:00:00,24.8,18.6,30.36,SW,223,1.0,3.0,77,0.00,,---,0.00,VWS V14.00,2013-01-15 23:00:00,
2013-01-15 18:02:00,24.7,18.5,30.36,SW,223,0.0,1.0,77,0.00,,---,0.00,VWS V14.00,2013-01-15 23:02:00,
2013-01-15 18:08:00,24.6,18.7,30.35,SW,223,0.0,1.0,78,0.00,,---,0.00,VWS V14.00,2013-01-15 23:08:00,
2013-01-15 18:13:00,24.5,18.6,30.36,SW,223,1.0,2.0,78,0.00,,---,0.00,VWS V14.00,2013-01-15 23:13:00,
2013-01-15 18:18:00,24.3,18.4,30.36,SW,223,1.0,3.0,78,0.00,,---,0.00,VWS V14.00,2013-01-15 23:18:00,
2013-01-15 18:23:00,24.2,18.3,30.36,SW,223,2.0,3.0,78,0.00,,---,0.00,VWS V14.00,2013-01-15 23:23:00,
2013-01-15 18:28:00,24.1,18.2,30.36,SW,223,0.0,1.0,78,0.00,,---,0.00,VWS V14.00,2013-01-15 23:28:00,
2013-01-15 18:30:00,24.1,18.2,30.36,SW,223,0.0,3.0,78,0.00,,---,0.00,VWS V14.00,2013-01-15 23:30:00,
2013-01-15 18:33:00,24.0,18.1,30.36,SW,223,0.0,2.0,78,0.00,,---,0.00,VWS V14.00,2013-01-15 23:33:00,
2013-01-15 18:38:00,23.9,18.0,30.35,SW,223,0.0,2.0,78,0.00,,---,0.00,VWS V14.00,2013-01-15 23:38:00,
2013-01-15 18:43:00,23.8,18.0,30.35,SW,223,0.0,2.0,78,0.00,,---,0.00,VWS V14.00,2013-01-15 23:43:00,
2013-01-15 18:48:00,23.8,18.0,30.35,SW,223,1.0,2.0,78,0.00,,---,0.00,VWS V14.00,2013-01-15 23:48:00,
2013-01-15 18:53:00,23.8,18.0,30.35,SW,223,0.0,2.0,78,0.00,,---,0.00,VWS V14.00,2013-01-15 23:53:00,
2013-01-15 18:58:00,23.6,17.8,30.35,SW,217,0.0,2.0,78,0.00,,---,0.00,VWS V14.00,2013-01-15 23:58:00,
2013-01-15 19:00:00,23.6,17.8,30.35,SW,217,2.0,3.0,78,0.00,,---,0.00,VWS V14.00,2013-01-16 00:00:00,
2013-01-15 19:03:00,23.5,17.7,30.35,SW,214,0.0,3.0,78,0.00,,---,0.00,VWS V14.00,2013-01-16 00:03:00,
2013-01-15 19:08:00,23.2,17.4,30.35,SSW,212,1.0,3.0,78,0.00,,---,0.00,VWS V14.00,2013-01-16 00:08:00,
2013-01-15 19:13:00,23.0,17.5,30.34,SSW,205,3.0,4.0,79,0.00,,---,0.00,VWS V14.00,2013-01-16 00:13:00,
2013-01-15 19:18:00,22.9,17.4,30.35,South,178,5.0,5.0,79,0.00,,---,0.00,VWS V14.00,2013-01-16 00:18:00,
2013-01-15 19:23:00,22.8,17.6,30.35,SSE,166,2.0,7.0,80,0.00,,---,0.00,VWS V14.00,2013-01-16 00:23:00,
2013-01-15 19:28:00,22.7,17.5,30.34,SSE,159,2.0,5.0,80,0.00,,---,0.00,VWS V14.00,2013-01-16 00:28:00,
2013-01-15 19:30:00,22.7,17.5,30.35,SSE,159,5.0,7.0,80,0.00,,---,0.00,VWS V14.00,2013-01-16 00:30:00,
2013-01-15 19:33:00,22.6,17.4,30.34,SSE,159,5.0,6.0,80,0.00,,---,0.00,VWS V14.00,2013-01-16 00:33:00,
2013-01-15 19:38:00,22.7,17.5,30.34,SSE,159,4.0,6.0,80,0.00,,---,0.00,VWS V14.00,2013-01-16 00:38:00,
2013-01-15 19:43:00,22.7,17.5,30.34,South,169,4.0,6.0,80,0.00,,---,0.00,VWS V14.00,2013-01-16 00:43:00,
2013-01-15 19:48:00,22.6,17.4,30.33,SSE,167,0.0,6.0,80,0.00,,---,0.00,VWS V14.00,2013-01-16 00:48:00,
2013-01-15 19:53:00,22.6,17.4,30.34,SSE,167,1.0,6.0,80,0.00,,---,0.00,VWS V14.00,2013-01-16 00:53:00,
2013-01-15 19:58:00,22.5,17.6,30.33,SSE,167,0.0,1.0,81,0.00,,---,0.00,VWS V14.00,2013-01-16 00:58:00,
2013-01-15 20:00:00,22.5,17.6,30.33,SSE,167,1.0,6.0,81,0.00,,---,0.00,VWS V14.00,2013-01-16 01:00:00,
2013-01-15 20:03:00,22.4,17.5,30.33,SSE,167,0.0,2.0,81,0.00,,---,0.00,VWS V14.00,2013-01-16 01:03:00,
2013-01-15 20:08:00,22.3,17.4,30.34,SSE,167,0.0,4.0,81,0.00,,---,0.00,VWS V14.00,2013-01-16 01:08:00,
2013-01-15 20:13:00,22.2,17.3,30.33,SSE,167,1.0,4.0,81,0.00,,---,0.00,VWS V14.00,2013-01-16 01:13:00,
2013-01-15 20:18:00,22.2,17.5,30.33,SSE,167,0.0,5.0,82,0.00,,---,0.00,VWS V14.00,2013-01-16 01:18:00,
2013-01-15 20:23:00,22.1,17.5,30.33,SSE,167,0.0,5.0,82,0.00,,---,0.00,VWS V14.00,2013-01-16 01:23:00,
2013-01-15 20:28:00,22.0,17.4,30.32,SSE,167,2.0,4.0,82,0.00,,---,0.00,VWS V14.00,2013-01-16 01:28:00,
2013-01-15 20:30:00,22.1,17.5,30.32,SSE,167,0.0,5.0,82,0.00,,---,0.00,VWS V14.00,2013-01-16 01:30:00,
2013-01-15 20:33:00,22.0,17.4,30.32,SSE,167,0.0,4.0,82,0.00,,---,0.00,VWS V14.00,2013-01-16 01:33:00,
2013-01-15 20:38:00,22.0,17.4,30.32,SSE,167,2.0,4.0,82,0.00,,---,0.00,VWS V14.00,2013-01-16 01:38:00,
2013-01-15 20:43:00,22.0,17.4,30.31,SSE,167,1.0,5.0,82,0.00,,---,0.00,VWS V14.00,2013-01-16 01:43:00,
2013-01-15 20:48:00,22.0,17.4,30.31,SSE,167,2.0,5.0,82,0.00,,---,0.00,VWS V14.00,2013-01-16 01:48:00,
2013-01-15 20:53:00,21.9,17.3,30.31,SSE,167,2.0,5.0,82,0.00,,---,0.00,VWS V14.00,2013-01-16 01:53:00,
2013-01-15 20:58:00,21.8,17.2,30.30,SSE,167,2.0,4.0,82,0.00,,---,0.00,VWS V14.00,2013-01-16 01:58:00,
2013-01-15 21:00:00,21.8,17.2,30.30,SSE,167,1.0,5.0,82,0.00,,---,0.00,VWS V14.00,2013-01-16 02:00:00,
2013-01-15 21:03:00,21.7,17.1,30.30,SSE,167,1.0,4.0,82,0.00,,---,0.00,VWS V14.00,2013-01-16 02:03:00,
2013-01-15 21:08:00,21.6,17.0,30.30,SSE,167,1.0,4.0,82,0.00,,---,0.00,VWS V14.00,2013-01-16 02:08:00,
2013-01-15 21:13:00,21.5,16.9,30.29,SSE,167,1.0,4.0,82,0.00,,---,0.00,VWS V14.00,2013-01-16 02:13:00,
2013-01-15 21:18:00,21.3,16.7,30.29,SSE,167,1.0,4.0,82,0.00,,---,0.00,VWS V14.00,2013-01-16 02:18:00,
2013-01-15 21:23:00,21.3,16.7,30.28,SSE,167,2.0,4.0,82,0.00,,---,0.00,VWS V14.00,2013-01-16 02:23:00,
2013-01-15 21:28:00,21.3,16.7,30.28,SSE,167,0.0,0.0,82,0.00,,---,0.00,VWS V14.00,2013-01-16 02:28:00,
2013-01-15 21:30:00,21.3,16.7,30.28,SSE,167,0.0,4.0,82,0.00,,---,0.00,VWS V14.00,2013-01-16 02:30:00,
2013-01-15 21:33:00,21.2,16.6,30.28,SSE,167,0.0,1.0,82,0.00,,---,0.00,VWS V14.00,2013-01-16 02:33:00,
2013-01-15 21:38:00,21.1,16.5,30.28,SSE,167,0.0,1.0,82,0.00,,---,0.00,VWS V14.00,2013-01-16 02:38:00,
2013-01-15 21:43:00,21.1,16.5,30.28,SSE,167,0.0,1.0,82,0.00,,---,0.00,VWS V14.00,2013-01-16 02:43:00,
2013-01-15 21:48:00,21.0,16.7,30.27,SSE,167,0.0,1.0,83,0.00,,---,0.00,VWS V14.00,2013-01-16 02:48:00,
2013-01-15 21:53:00,21.1,16.8,30.27,SSE,167,0.0,2.0,83,0.00,,---,0.00,VWS V14.00,2013-01-16 02:53:00,
2013-01-15 21:58:00,21.0,16.7,30.27,SSE,167,2.0,2.0,83,0.00,,---,0.00,VWS V14.00,2013-01-16 02:58:00,
2013-01-15 22:00:00,21.1,16.8,30.27,SSE,167,1.0,2.0,83,0.00,,---,0.00,VWS V14.00,2013-01-16 03:00:00,
2013-01-15 22:03:00,20.9,16.6,30.26,SSE,167,0.0,2.0,83,0.00,,---,0.00,VWS V14.00,2013-01-16 03:03:00,
2013-01-15 22:08:00,20.9,16.6,30.26,SSE,167,0.0,2.0,83,0.00,,---,0.00,VWS V14.00,2013-01-16 03:08:00,
2013-01-15 22:13:00,20.8,16.5,30.26,SSE,167,0.0,2.0,83,0.00,,---,0.00,VWS V14.00,2013-01-16 03:13:00,
2013-01-15 22:18:00,20.7,16.4,30.26,SSE,167,0.0,2.0,83,0.00,,---,0.00,VWS V14.00,2013-01-16 03:18:00,
2013-01-15 22:23:00,20.7,16.4,30.26,SSE,167,0.0,2.0,83,0.00,,---,0.00,VWS V14.00,2013-01-16 03:23:00,
2013-01-15 22:28:00,20.6,16.3,30.26,SSE,167,0.0,1.0,83,0.00,,---,0.00,VWS V14.00,2013-01-16 03:28:00,
2013-01-15 22:30:00,20.6,16.3,30.26,SSE,167,0.0,2.0,83,0.00,,---,0.00,VWS V14.00,2013-01-16 03:30:00,
2013-01-15 22:33:00,20.3,16.0,30.25,SSE,167,2.0,2.0,83,0.00,,---,0.00,VWS V14.00,2013-01-16 03:33:00,
2013-01-15 22:38:00,20.1,16.0,30.25,SSE,167,0.0,2.0,84,0.00,,---,0.00,VWS V14.00,2013-01-16 03:38:00,
2013-01-15 22:43:00,19.9,15.9,30.25,SSE,167,2.0,2.0,84,0.00,,---,0.00,VWS V14.00,2013-01-16 03:43:00,
2013-01-15 22:49:00,19.7,15.7,30.25,SSE,167,1.0,2.0,84,0.00,,---,0.00,VWS V14.00,2013-01-16 03:49:00,
2013-01-15 22:54:00,19.5,15.7,30.25,SSE,167,0.0,2.0,85,0.00,,---,0.00,VWS V14.00,2013-01-16 03:54:00,
2013-01-15 22:59:00,19.3,15.5,30.25,SSE,167,2.0,2.0,85,0.00,,---,0.00,VWS V14.00,2013-01-16 03:59:00,
2013-01-15 23:00:00,19.3,15.5,30.25,SSE,167,2.0,2.0,85,0.00,,---,0.00,VWS V14.00,2013-01-16 04:00:00,
2013-01-15 23:04:00,19.2,15.7,30.25,SSE,167,0.0,2.0,86,0.00,,---,0.00,VWS V14.00,2013-01-16 04:04:00,
2013-01-15 23:09:00,19.0,15.2,30.25,SSE,167,1.0,4.0,85,0.00,,---,0.00,VWS V14.00,2013-01-16 04:09:00,
2013-01-15 23:14:00,18.8,15.3,30.24,SSE,167,1.0,4.0,86,0.00,,---,0.00,VWS V14.00,2013-01-16 04:14:00,
2013-01-15 23:19:00,18.7,15.2,30.24,SSE,167,2.0,4.0,86,0.00,,---,0.00,VWS V14.00,2013-01-16 04:19:00,
2013-01-15 23:24:00,18.8,15.6,30.23,SSE,167,0.0,4.0,87,0.00,,---,0.00,VWS V14.00,2013-01-16 04:24:00,
2013-01-15 23:29:00,19.0,15.5,30.23,SSE,167,1.0,2.0,86,0.00,,---,0.00,VWS V14.00,2013-01-16 04:29:00,
2013-01-15 23:30:00,18.9,15.4,30.23,SSE,167,1.0,4.0,86,0.00,,---,0.00,VWS V14.00,2013-01-16 04:30:00,
2013-01-15 23:34:00,19.0,15.5,30.23,SSE,167,1.0,2.0,86,0.00,,---,0.00,VWS V14.00,2013-01-16 04:34:00,
2013-01-15 23:39:00,18.9,15.4,30.23,SSE,167,1.0,2.0,86,0.00,,---,0.00,VWS V14.00,2013-01-16 04:39:00,
2013-01-15 23:44:00,18.9,15.4,30.23,SSE,167,1.0,2.0,86,0.00,,---,0.00,VWS V14.00,2013-01-16 04:44:00,
2013-01-15 23:49:00,18.9,15.4,30.23,SSE,167,1.0,2.0,86,0.00,,---,0.00,VWS V14.00,2013-01-16 04:49:00,
2013-01-15 23:54:00,18.9,15.4,30.22,SSE,167,1.0,4.0,86,0.00,,---,0.00,VWS V14.00,2013-01-16 04:54:00,
2013-01-15 23:59:00,19.0,15.5,30.22,SSE,167,2.0,4.0,86,0.00,,---,0.00,VWS V14.00,2013-01-16 04:59:00,